Time;durP1;ratioP1;P1;durP2;ratioP2;P2;SDS_P1;SDS_P2;PMS_P1;PMS_P2;Temp;Humidity;BMP_temperature;BMP_pressure;BME280_temperature;BME280_humidity;BME280_pressure;Samples;Min_cycle;Max_cycle;Signal;HPM_P1;HPM_P2
2023/10/22 00:00:07;;;;;;;6.53;2.43;;;;;;;14.18;64.86;99635.72;5073901;28;20182;-69
2023/10/22 00:02:38;;;;;;;5.23;1.73;;;;;;;14.17;64.93;99644.81;5073545;28;20189;-70
2023/10/22 00:05:06;;;;;;;2.50;1.90;;;;;;;14.14;65.16;99647.09;5073519;28;20191;-70
2023/10/22 00:07:33;;;;;;;4.60;1.27;;;;;;;14.16;64.74;99645.88;5073374;28;20217;-69
2023/10/22 00:10:00;;;;;;;2.20;1.63;;;;;;;14.09;65.33;99653.06;5073440;28;20182;-69
2023/10/22 00:12:27;;;;;;;2.23;2.13;;;;;;;14.15;64.80;99672.94;5073407;28;20753;-69
2023/10/22 00:14:53;;;;;;;2.13;2.13;;;;;;;14.11;65.33;99666.31;5073704;28;20214;-69
2023/10/22 00:17:20;;;;;;;1.70;1.70;;;;;;;14.12;65.50;99670.66;5073230;28;20214;-69
2023/10/22 00:19:47;;;;;;;1.20;1.20;;;;;;;14.19;65.44;99663.44;5073639;28;20235;-69
2023/10/22 00:22:14;;;;;;;1.87;1.77;;;;;;;14.14;65.75;99669.44;5073222;28;20274;-69
2023/10/22 00:24:41;;;;;;;1.43;1.43;;;;;;;14.19;65.63;99664.28;5073593;28;20167;-69
2023/10/22 00:27:08;;;;;;;2.13;2.03;;;;;;;14.17;66.17;99669.00;5073164;28;20693;-69
2023/10/22 00:29:34;;;;;;;2.60;1.83;;;;;;;14.12;66.07;99678.72;5071946;28;20198;-69
2023/10/22 00:32:01;;;;;;;1.40;1.40;;;;;;;14.11;66.18;99671.69;5073151;28;20195;-69
2023/10/22 00:34:28;;;;;;;11.60;1.60;;;;;;;14.15;65.33;99667.56;5073129;28;20727;-69
2023/10/22 00:36:55;;;;;;;1.37;1.37;;;;;;;14.12;66.18;99667.97;5071812;28;20214;-69
2023/10/22 00:39:21;;;;;;;1.50;1.40;;;;;;;14.10;66.23;99672.72;5071866;28;20190;-69
2023/10/22 00:41:48;;;;;;;1.30;1.30;;;;;;;14.11;66.18;99663.63;5073372;28;20545;-69
2023/10/22 00:44:15;;;;;;;1.87;1.43;;;;;;;14.11;66.60;99672.53;5073029;28;20595;-69
2023/10/22 00:46:44;;;;;;;1.43;1.10;;;;;;;14.16;66.12;99664.69;5072991;28;20210;-69
2023/10/22 00:49:12;;;;;;;1.27;1.17;;;;;;;14.10;66.50;99668.16;5072994;28;20205;-69
2023/10/22 00:51:39;;;;;;;1.20;1.20;;;;;;;14.10;66.33;99672.72;5071682;28;20234;-69
2023/10/22 00:54:06;;;;;;;2.13;1.93;;;;;;;14.11;66.61;99669.84;5071728;28;20213;-69
2023/10/22 00:56:34;;;;;;;4.70;1.63;;;;;;;14.06;66.83;99668.75;5072881;28;20202;-69
2023/10/22 00:59:01;;;;;;;3.30;1.70;;;;;;;14.07;66.87;99673.13;5072942;28;20186;-69
2023/10/22 01:01:27;;;;;;;2.50;1.83;;;;;;;14.13;66.49;99672.34;5073413;28;20190;-69
2023/10/22 01:03:54;;;;;;;1.90;1.50;;;;;;;14.12;66.39;99676.88;5073138;28;20198;-69
2023/10/22 01:06:21;;;;;;;1.00;1.00;;;;;;;14.12;66.50;99676.03;5071497;28;20214;-69
2023/10/22 01:08:48;;;;;;;4.00;1.30;;;;;;;14.10;66.68;99672.72;5073120;28;20236;-69
2023/10/22 01:11:15;;;;;;;2.83;1.43;;;;;;;14.06;66.90;99676.81;5072774;28;20202;-69
2023/10/22 01:13:41;;;;;;;1.30;1.20;;;;;;;14.12;66.46;99673.34;5071755;28;20201;-69
2023/10/22 01:16:08;;;;;;;4.17;1.70;;;;;;;14.06;66.87;99676.81;5072545;28;20701;-69
2023/10/22 01:18:35;;;;;;;1.60;1.60;;;;;;;14.02;67.03;99668.34;5071547;28;20199;-69
2023/10/22 01:21:06;;;;;;;1.80;1.80;;;;;;;14.13;66.74;99689.25;5073000;28;20562;-69
2023/10/22 01:23:38;;;;;;;2.00;1.70;;;;;;;14.11;67.20;99687.81;5071482;28;20190;-69
2023/10/22 01:26:06;;;;;;;1.20;1.20;;;;;;;14.01;67.29;99690.84;5072943;28;20211;-69
2023/10/22 01:28:34;;;;;;;1.27;1.27;;;;;;;13.99;67.43;99684.88;5072935;28;20225;-69
2023/10/22 01:31:00;;;;;;;1.10;1.10;;;;;;;14.01;67.13;99696.22;5072560;28;20210;-69
2023/10/22 01:33:27;;;;;;;2.00;1.23;;;;;;;14.00;67.18;99697.25;5076172;28;20203;-69
2023/10/22 01:35:53;;;;;;;2.33;1.10;;;;;;;13.99;66.98;99697.47;5076586;28;20285;-69
2023/10/22 01:38:20;;;;;;;1.93;1.30;;;;;;;13.98;67.47;99696.63;5076495;28;20217;-69
2023/10/22 01:40:46;;;;;;;1.57;1.57;;;;;;;13.98;67.37;99699.31;5076226;28;20183;-69
2023/10/22 01:43:13;;;;;;;1.97;1.87;;;;;;;13.98;67.40;99706.56;5077007;28;20577;-69
2023/10/22 01:45:40;;;;;;;2.03;1.60;;;;;;;13.89;68.14;99705.88;5074797;28;20214;-69
2023/10/22 01:48:06;;;;;;;2.23;1.10;;;;;;;13.89;67.96;99697.00;5076349;28;20196;-69
2023/10/22 01:50:34;;;;;;;3.97;1.20;;;;;;;13.84;68.13;99708.31;5075937;28;20269;-69
2023/10/22 01:53:01;;;;;;;4.83;1.40;;;;;;;13.82;68.63;99705.03;5074956;28;20201;-69
2023/10/22 01:55:28;;;;;;;1.40;1.40;;;;;;;13.81;68.89;99702.53;5074640;28;20214;-69
2023/10/22 01:57:54;;;;;;;2.40;1.40;;;;;;;13.84;68.67;99707.50;5075947;28;20598;-69
2023/10/22 02:00:21;;;;;;;1.30;1.30;;;;;;;13.84;69.01;99713.69;5074626;28;20248;-69
2023/10/22 02:02:48;;;;;;;1.37;1.20;;;;;;;13.80;68.66;99709.75;5075844;28;20190;-69
2023/10/22 02:05:16;;;;;;;1.33;1.10;;;;;;;13.78;68.94;99727.09;5075690;28;20182;-69
2023/10/22 02:07:42;;;;;;;2.67;1.00;;;;;;;13.81;69.02;99718.66;5075740;28;20190;-69
2023/10/22 02:10:09;;;;;;;1.60;1.10;;;;;;;13.82;68.99;99723.00;5075941;28;20198;-69
2023/10/22 02:12:35;;;;;;;1.20;1.20;;;;;;;13.76;68.94;99713.03;5074335;28;20214;-69
2023/10/22 02:15:02;;;;;;;1.77;1.20;;;;;;;13.73;69.91;99722.31;5075896;28;20194;-69
2023/10/22 02:17:29;;;;;;;5.57;1.30;;;;;;;13.83;69.48;99722.81;5075396;28;20214;-69
2023/10/22 02:19:55;;;;;;;2.57;1.27;;;;;;;13.80;69.46;99719.66;5075512;28;20273;-69
2023/10/22 02:22:22;;;;;;;3.33;1.20;;;;;;;13.77;69.46;99720.91;5074211;28;20240;-69
2023/10/22 02:24:48;;;;;;;2.50;1.10;;;;;;;13.75;69.48;99722.13;5075673;28;20236;-69
2023/10/22 02:27:14;;;;;;;2.63;1.17;;;;;;;13.73;69.45;99720.47;5075888;28;20674;-70
2023/10/22 02:29:41;;;;;;;4.33;1.13;;;;;;;13.69;70.13;99727.25;5075896;28;20232;-69
2023/10/22 02:32:07;;;;;;;1.67;1.40;;;;;;;13.69;69.93;99735.31;5075490;28;20656;-69
2023/10/22 02:34:35;;;;;;;1.03;1.03;;;;;;;13.70;70.17;99741.53;5075266;28;20183;-69
2023/10/22 02:37:02;;;;;;;2.10;1.20;;;;;;;13.76;69.61;99739.88;5075126;28;20222;-69
2023/10/22 02:39:29;;;;;;;1.47;1.00;;;;;;;13.69;70.28;99738.00;5074118;28;20218;-69
2023/10/22 02:41:55;;;;;;;1.20;1.20;;;;;;;13.69;70.17;99746.06;5073867;28;20256;-69
2023/10/22 02:44:22;;;;;;;1.10;1.10;;;;;;;13.63;70.72;99741.47;5074989;28;20183;-69
2023/10/22 02:46:48;;;;;;;1.23;1.23;;;;;;;13.60;70.35;99747.22;5074924;28;20210;-69
2023/10/22 02:49:15;;;;;;;1.33;1.33;;;;;;;13.63;70.76;99746.84;5074964;28;20248;-69
2023/10/22 02:51:42;;;;;;;3.03;1.47;;;;;;;13.60;71.09;99754.44;5073603;28;20622;-69
2023/10/22 02:54:08;;;;;;;2.20;1.50;;;;;;;13.59;70.63;99750.94;5073577;28;20194;-69
2023/10/22 02:56:35;;;;;;;1.83;1.73;;;;;;;13.53;71.77;99757.09;5075000;28;20573;-69
2023/10/22 02:59:01;;;;;;;1.80;1.27;;;;;;;13.49;71.68;99766.56;5074737;28;20187;-70
2023/10/22 03:01:29;;;;;;;2.13;1.23;;;;;;;13.47;71.66;99770.44;5075009;28;20193;-70
2023/10/22 03:03:55;;;;;;;1.70;1.60;;;;;;;13.36;72.29;99774.50;5073442;28;20197;-70
2023/10/22 03:06:22;;;;;;;2.03;1.33;;;;;;;13.37;72.22;99776.16;5074585;28;20268;-69
2023/10/22 03:08:48;;;;;;;1.00;1.00;;;;;;;13.33;72.70;99776.72;5073512;28;20662;-69
2023/10/22 03:11:17;;;;;;;2.27;1.10;;;;;;;13.35;72.63;99774.69;5074960;28;20199;-69
2023/10/22 03:13:44;;;;;;;1.27;1.07;;;;;;;13.31;73.06;99787.66;5074787;28;20567;-69
2023/10/22 03:16:14;;;;;;;0.83;0.83;;;;;;;13.24;73.56;99792.13;5074426;28;20214;-69
2023/10/22 03:18:42;;;;;;;1.30;0.97;;;;;;;13.27;73.33;99792.59;5074620;28;20179;-69
2023/10/22 03:21:17;;;;;;;1.00;1.00;;;;;;;13.24;73.58;99789.44;5073052;28;20201;-69
2023/10/22 03:23:47;;;;;;;1.93;1.00;;;;;;;13.25;73.38;99799.16;5074615;28;20621;-70
2023/10/22 03:26:15;;;;;;;1.20;1.20;;;;;;;13.22;73.67;99804.91;5073107;28;20744;-69
2023/10/22 03:28:43;;;;;;;1.53;1.07;;;;;;;13.23;73.86;99799.38;5074151;28;20209;-69
2023/10/22 03:31:10;;;;;;;0.97;0.97;;;;;;;13.22;74.11;99805.75;5073015;28;20186;-69
2023/10/22 03:33:37;;;;;;;2.70;1.03;;;;;;;13.25;74.09;99810.72;5074020;28;20198;-70
2023/10/22 03:36:04;;;;;;;0.90;0.90;;;;;;;13.20;74.63;99804.25;5073940;28;20210;-69
2023/10/22 03:38:31;;;;;;;0.80;0.80;;;;;;;13.12;74.69;99810.59;5073988;28;20187;-69
2023/10/22 03:41:03;;;;;;;3.90;0.97;;;;;;;13.13;75.14;99814.94;5074166;28;20248;-69
2023/10/22 03:43:30;;;;;;;0.90;0.90;;;;;;;13.14;74.87;99810.41;5074129;28;20723;-69
2023/10/22 03:45:58;;;;;;;0.90;0.90;;;;;;;13.10;75.17;99814.47;5074006;28;20297;-69
2023/10/22 03:48:26;;;;;;;3.63;1.10;;;;;;;13.02;75.75;99811.91;5073823;28;20194;-69
2023/10/22 03:50:54;;;;;;;0.90;0.90;;;;;;;13.01;75.92;99813.75;5074543;28;20201;-69
2023/10/22 03:53:23;;;;;;;1.20;1.20;;;;;;;13.09;76.27;99820.84;5074240;28;20249;-70
2023/10/22 03:55:50;;;;;;;2.00;1.13;;;;;;;13.09;76.17;99819.00;5072787;28;20214;-69
2023/10/22 03:58:17;;;;;;;1.00;1.00;;;;;;;13.18;75.84;99825.09;5074127;28;20190;-70
2023/10/22 04:00:44;;;;;;;1.00;1.00;;;;;;;13.01;76.85;99823.66;5073570;28;20193;-70
2023/10/22 04:03:11;;;;;;;1.80;1.13;;;;;;;12.93;77.10;99819.22;5073548;28;20247;-69
2023/10/22 04:05:38;;;;;;;0.80;0.80;;;;;;;12.92;77.46;99835.50;5073750;28;20207;-69
2023/10/22 04:08:05;;;;;;;0.80;0.80;;;;;;;13.12;77.13;99840.09;5073807;28;20607;-70
2023/10/22 04:10:31;;;;;;;0.97;0.97;;;;;;;13.04;77.22;99839.34;5073478;28;20191;-70
2023/10/22 04:12:57;;;;;;;0.70;0.70;;;;;;;13.08;77.14;99848.69;5073945;28;20244;-70
2023/10/22 04:15:24;;;;;;;0.87;0.87;;;;;;;13.00;77.57;99851.50;5073369;28;20564;-69
2023/10/22 04:17:50;;;;;;;0.80;0.80;;;;;;;13.07;77.42;99858.59;5073352;28;20182;-70
2023/10/22 04:20:17;;;;;;;0.80;0.80;;;;;;;13.04;78.10;99863.50;5073329;28;20182;-70
2023/10/22 04:22:44;;;;;;;0.70;0.70;;;;;;;13.05;78.16;99862.50;5073320;28;20190;-70
2023/10/22 04:25:13;;;;;;;1.50;0.83;;;;;;;13.03;78.88;99865.34;5073185;28;20186;-70
2023/10/22 04:27:40;;;;;;;1.17;0.70;;;;;;;13.06;78.75;99870.38;5073245;28;20198;-70
2023/10/22 04:30:07;;;;;;;1.13;0.80;;;;;;;13.02;78.63;99871.78;5073232;28;20183;-70
2023/10/22 04:32:34;;;;;;;1.13;1.13;;;;;;;13.10;78.58;99881.56;5073437;28;20206;-70
2023/10/22 04:35:02;;;;;;;1.00;1.00;;;;;;;13.11;78.50;99891.31;5073195;28;20183;-70
2023/10/22 04:37:28;;;;;;;0.90;0.90;;;;;;;13.06;78.57;99878.41;5073091;28;20210;-69
2023/10/22 04:39:56;;;;;;;2.73;0.80;;;;;;;13.12;78.44;99887.56;5073082;28;20195;-69
2023/10/22 04:42:27;;;;;;;0.80;0.80;;;;;;;13.10;79.00;99893.16;5073454;28;20253;-69
2023/10/22 04:44:53;;;;;;;1.60;1.03;;;;;;;13.16;78.46;99889.69;5073037;28;20182;-69
2023/10/22 04:47:23;;;;;;;0.73;0.73;;;;;;;13.18;78.10;99894.88;5073029;28;20301;-69
2023/10/22 04:49:52;;;;;;;2.93;0.90;;;;;;;13.13;78.52;99892.78;5073072;28;20193;-69
2023/10/22 04:52:33;;;;;;;0.60;0.60;;;;;;;13.22;78.40;99904.22;5073630;28;20700;-70
2023/10/22 04:55:01;;;;;;;0.80;0.80;;;;;;;13.17;78.38;99906.63;5073318;28;20205;-69
2023/10/22 04:57:28;;;;;;;0.70;0.70;;;;;;;13.16;78.15;99921.91;5072945;28;20218;-69
2023/10/22 04:59:55;;;;;;;1.70;0.90;;;;;;;13.19;78.51;99932.28;5073253;28;20610;-70
2023/10/22 05:02:21;;;;;;;2.10;0.90;;;;;;;13.08;78.82;99926.50;5072931;28;20186;-70
2023/10/22 05:04:50;;;;;;;2.43;0.90;;;;;;;13.11;78.81;99929.69;5072914;28;20191;-70
2023/10/22 05:07:17;;;;;;;0.70;0.70;;;;;;;13.17;78.86;99934.31;5075258;28;20205;-70
2023/10/22 05:09:44;;;;;;;1.00;0.93;;;;;;;13.20;78.65;99933.09;5076855;28;20186;-70
2023/10/22 05:12:10;;;;;;;0.80;0.80;;;;;;;13.16;78.87;99938.00;5076716;28;20217;-70
2023/10/22 05:14:37;;;;;;;0.70;0.70;;;;;;;13.18;79.21;99948.56;5076753;28;20226;-69
2023/10/22 05:17:05;;;;;;;0.87;0.87;;;;;;;13.18;79.03;99951.25;5076737;28;20241;-69
2023/10/22 05:19:32;;;;;;;0.60;0.60;;;;;;;13.19;78.80;99947.56;5076921;28;20273;-69
2023/10/22 05:21:58;;;;;;;0.83;0.83;;;;;;;13.27;78.19;99955.50;5076630;28;20175;-70
2023/10/22 05:24:25;;;;;;;0.80;0.80;;;;;;;13.22;78.40;99960.59;5076557;28;20244;-70
2023/10/22 05:26:52;;;;;;;2.43;0.90;;;;;;;13.25;78.40;99968.25;5076457;28;20203;-69
2023/10/22 05:29:19;;;;;;;4.80;0.70;;;;;;;13.20;78.45;99973.34;5076731;28;20228;-70
2023/10/22 05:31:45;;;;;;;0.70;0.70;;;;;;;13.27;78.30;99972.44;5076631;28;20241;-70
2023/10/22 05:34:12;;;;;;;0.90;0.90;;;;;;;13.20;78.10;99986.78;5076343;28;20665;-70
2023/10/22 05:36:38;;;;;;;1.50;1.50;;;;;;;13.23;78.29;99983.75;5076618;28;20255;-69
2023/10/22 05:39:04;;;;;;;0.90;0.90;;;;;;;13.23;78.22;99992.63;5076667;28;20604;-70
2023/10/22 05:41:31;;;;;;;0.93;0.93;;;;;;;13.30;78.27;99995.38;5076822;28;20187;-70
2023/10/22 05:44:00;;;;;;;6.50;1.00;;;;;;;13.23;78.23;99997.16;5076236;28;20674;-70
2023/10/22 05:46:27;;;;;;;1.37;0.80;;;;;;;13.24;78.28;100005.00;5076408;28;20206;-70
2023/10/22 05:48:54;;;;;;;0.90;0.90;;;;;;;13.15;78.67;100014.16;5076401;28;20167;-70
2023/10/22 05:51:21;;;;;;;7.63;0.90;;;;;;;13.19;78.71;100017.34;5076604;28;20182;-70
2023/10/22 05:53:48;;;;;;;0.77;0.77;;;;;;;13.17;78.79;100020.19;5076209;28;20210;-70
2023/10/22 05:56:14;;;;;;;1.40;0.90;;;;;;;13.07;79.40;100022.28;5076165;28;20202;-70
2023/10/22 05:58:41;;;;;;;0.90;0.90;;;;;;;13.11;79.28;100023.63;5075971;28;20674;-66
2023/10/22 06:01:09;;;;;;;2.67;1.30;;;;;;;13.10;78.93;100029.16;5076463;28;20233;-66
2023/10/22 06:03:35;;;;;;;1.10;1.10;;;;;;;13.12;78.95;100046.75;5076302;28;20186;-66
2023/10/22 06:06:03;;;;;;;1.30;1.27;;;;;;;13.10;78.46;100040.75;5075888;28;20206;-67
2023/10/22 06:08:29;;;;;;;1.07;1.07;;;;;;;13.03;79.09;100049.66;5075689;28;20176;-66
2023/10/22 06:10:56;;;;;;;1.00;1.00;;;;;;;13.10;78.71;100048.81;5075993;28;20190;-66
2023/10/22 06:13:22;;;;;;;1.20;1.20;;;;;;;13.06;77.36;100068.09;5076100;28;20297;-66
2023/10/22 06:15:55;;;;;;;2.67;1.13;;;;;;;13.11;77.34;100065.75;5075701;28;20206;-67
2023/10/22 06:18:21;;;;;;;1.53;1.43;;;;;;;13.19;76.98;100060.28;5074898;28;20175;-67
2023/10/22 06:20:48;;;;;;;1.40;1.30;;;;;;;13.04;76.58;100073.66;5075492;28;20193;-66
2023/10/22 06:23:15;;;;;;;0.90;0.90;;;;;;;12.94;77.27;100069.56;5075785;28;20550;-66
2023/10/22 06:25:43;;;;;;;1.00;1.00;;;;;;;12.94;77.06;100085.69;5075583;28;20218;-67
2023/10/22 06:28:09;;;;;;;1.10;1.10;;;;;;;12.95;77.17;100081.94;5075371;28;20190;-67
2023/10/22 06:30:35;;;;;;;1.00;1.00;;;;;;;12.93;76.32;100089.38;5075905;28;20194;-67
2023/10/22 06:33:03;;;;;;;3.70;1.20;;;;;;;12.93;76.71;100094.72;5075453;28;20610;-67
2023/10/22 06:35:30;;;;;;;1.00;1.00;;;;;;;12.83;76.56;100101.19;5075185;28;20302;-67
2023/10/22 06:37:57;;;;;;;0.80;0.80;;;;;;;12.83;76.26;100100.34;5075940;28;20650;-67
2023/10/22 06:40:24;;;;;;;1.27;1.20;;;;;;;12.85;75.96;100092.13;5075184;28;20190;-67
2023/10/22 06:42:51;;;;;;;1.80;0.90;;;;;;;12.91;76.17;100094.06;5075447;28;20179;-67
2023/10/22 06:45:19;;;;;;;0.70;0.70;;;;;;;12.87;75.95;100103.50;5075251;28;20201;-66
2023/10/22 06:47:46;;;;;;;0.80;0.80;;;;;;;12.86;75.80;100109.91;5075327;28;20612;-66
2023/10/22 06:50:13;;;;;;;0.80;0.80;;;;;;;12.81;75.98;100113.13;5074960;28;20270;-66
2023/10/22 06:52:43;;;;;;;0.97;0.97;;;;;;;12.74;76.47;100118.34;5074782;28;20206;-66
2023/10/22 06:55:11;;;;;;;0.83;0.83;;;;;;;12.73;76.48;100126.59;5074818;28;20187;-67
2023/10/22 06:57:38;;;;;;;1.00;1.00;;;;;;;12.76;76.10;100127.06;5074760;28;20194;-66
2023/10/22 07:00:08;;;;;;;0.90;0.90;;;;;;;12.83;75.97;100127.16;5073670;28;20545;-67
2023/10/22 07:02:34;;;;;;;1.40;1.30;;;;;;;12.74;76.73;100131.78;5074941;28;20186;-67
2023/10/22 07:05:01;;;;;;;1.00;1.00;;;;;;;12.83;76.07;100137.91;5074932;28;20274;-67
2023/10/22 07:07:28;;;;;;;1.47;1.17;;;;;;;12.74;76.01;100134.44;5074781;28;20570;-66
2023/10/22 07:09:55;;;;;;;1.20;1.20;;;;;;;12.74;76.01;100142.50;5074569;28;20551;-66
2023/10/22 07:12:22;;;;;;;1.10;1.10;;;;;;;12.76;75.28;100145.84;5074695;28;20551;-66
2023/10/22 07:14:48;;;;;;;1.20;1.20;;;;;;;12.77;75.71;100144.81;5074754;28;20197;-66
2023/10/22 07:17:15;;;;;;;1.30;1.30;;;;;;;12.68;76.24;100150.44;5074237;28;20275;-66
2023/10/22 07:19:42;;;;;;;1.10;1.10;;;;;;;12.67;75.79;100157.66;5074595;28;20187;-67
2023/10/22 07:22:08;;;;;;;1.17;1.17;;;;;;;12.71;75.98;100164.31;5074538;28;20261;-66
2023/10/22 07:24:35;;;;;;;2.67;1.10;;;;;;;12.73;76.05;100167.66;5074332;28;20186;-66
2023/10/22 07:27:01;;;;;;;2.00;1.00;;;;;;;12.80;75.44;100168.63;5074228;28;20218;-66
2023/10/22 07:29:28;;;;;;;1.00;1.00;;;;;;;12.76;75.29;100166.47;5074414;28;20187;-66
2023/10/22 07:31:54;;;;;;;1.00;1.00;;;;;;;12.87;75.42;100174.09;5074660;28;20646;-66
2023/10/22 07:34:21;;;;;;;2.30;1.37;;;;;;;12.82;75.13;100182.66;5074293;28;20217;-66
2023/10/22 07:36:47;;;;;;;1.03;1.03;;;;;;;12.81;75.07;100181.00;5074024;28;20231;-67
2023/10/22 07:39:14;;;;;;;1.23;1.17;;;;;;;12.88;74.73;100194.53;5073945;28;20190;-66
2023/10/22 07:41:40;;;;;;;1.17;1.10;;;;;;;12.94;74.87;100198.38;5073951;28;20265;-66
2023/10/22 07:44:07;;;;;;;1.60;1.60;;;;;;;12.87;75.44;100200.06;5074163;28;20190;-66
2023/10/22 07:46:33;;;;;;;0.90;0.90;;;;;;;12.79;76.04;100207.19;5074060;28;20259;-67
2023/10/22 07:49:00;;;;;;;1.33;1.27;;;;;;;12.87;75.55;100206.28;5073818;28;20232;-67
2023/10/22 07:51:27;;;;;;;2.13;0.90;;;;;;;12.86;75.30;100206.47;5073760;28;20214;-67
2023/10/22 07:53:54;;;;;;;7.20;1.20;;;;;;;12.76;75.89;100223.63;5073940;28;20212;-66
2023/10/22 07:56:20;;;;;;;1.23;1.23;;;;;;;12.81;74.98;100223.09;5073816;28;20226;-67
2023/10/22 07:58:47;;;;;;;0.83;0.83;;;;;;;12.92;74.60;100230.72;5073706;28;20229;-67
2023/10/22 08:01:13;;;;;;;1.10;1.10;;;;;;;12.86;74.73;100226.06;5073952;28;20241;-67
2023/10/22 08:03:40;;;;;;;1.00;1.00;;;;;;;12.82;74.45;100230.13;5072334;28;20252;-66
2023/10/22 08:06:07;;;;;;;0.83;0.83;;;;;;;12.90;73.67;100230.06;5055852;28;20240;-67
2023/10/22 08:08:33;;;;;;;0.87;0.87;;;;;;;12.81;74.15;100231.97;5073762;28;20187;-66
2023/10/22 08:11:03;;;;;;;2.23;1.23;;;;;;;12.89;73.87;100239.16;5073753;28;20179;-66
2023/10/22 08:13:29;;;;;;;1.00;1.00;;;;;;;12.88;73.71;100242.84;5073359;28;20260;-66
2023/10/22 08:15:56;;;;;;;0.80;0.80;;;;;;;12.92;73.46;100254.03;5073535;28;20218;-67
2023/10/22 08:18:23;;;;;;;1.00;1.00;;;;;;;12.94;73.59;100249.34;5073958;28;20186;-66
2023/10/22 08:20:50;;;;;;;0.93;0.93;;;;;;;12.91;74.31;100257.72;5073355;28;20187;-66
2023/10/22 08:23:17;;;;;;;0.90;0.90;;;;;;;12.92;73.89;100262.09;5073624;28;20189;-66
2023/10/22 08:25:52;;;;;;;0.90;0.90;;;;;;;12.90;73.50;100264.13;5073231;28;20218;-67
2023/10/22 08:28:19;;;;;;;1.10;1.10;;;;;;;12.97;73.42;100263.22;5073592;28;20190;-67
2023/10/22 08:30:47;;;;;;;0.90;0.90;;;;;;;12.90;73.85;100258.75;5073265;28;20218;-66
2023/10/22 08:33:13;;;;;;;1.37;1.10;;;;;;;12.94;74.41;100270.81;5073159;28;20206;-66
2023/10/22 08:35:40;;;;;;;1.50;1.50;;;;;;;12.93;73.92;100269.97;5073146;28;20222;-67
2023/10/22 08:38:07;;;;;;;1.10;1.10;;;;;;;12.91;74.45;100279.19;5073263;28;20197;-66
2023/10/22 08:40:38;;;;;;;1.30;1.30;;;;;;;13.00;74.42;100286.19;5073684;28;20167;-67
2023/10/22 08:43:06;;;;;;;5.53;1.20;;;;;;;13.12;73.40;100282.94;5072942;28;20622;-67
2023/10/22 08:45:32;;;;;;;1.10;1.10;;;;;;;13.10;73.28;100278.75;5073031;28;20217;-67
2023/10/22 08:48:03;;;;;;;1.40;1.30;;;;;;;13.03;74.23;100280.44;5073090;28;20187;-67
2023/10/22 08:50:32;;;;;;;1.50;1.40;;;;;;;12.97;74.67;100282.00;5073397;28;20210;-66
2023/10/22 08:52:59;;;;;;;1.33;1.33;;;;;;;13.19;73.29;100286.59;5072984;28;20206;-66
2023/10/22 08:55:28;;;;;;;1.57;1.47;;;;;;;13.18;73.80;100292.97;5072936;28;20187;-67
2023/10/22 08:57:56;;;;;;;1.40;1.40;;;;;;;13.31;73.74;100291.53;5072909;28;20236;-67
2023/10/22 09:00:26;;;;;;;1.30;1.30;;;;;;;13.27;73.69;100301.78;5072964;28;20240;-67
2023/10/22 09:02:57;;;;;;;1.40;1.40;;;;;;;13.18;74.28;100310.91;5073269;28;20566;-66
2023/10/22 09:05:24;;;;;;;1.00;1.00;;;;;;;13.22;73.79;100305.03;5073063;28;20189;-67
2023/10/22 09:07:51;;;;;;;1.30;1.30;;;;;;;13.40;73.89;100306.56;5072889;28;20187;-67
2023/10/22 09:10:30;;;;;;;1.33;1.33;;;;;;;13.49;72.50;100313.53;5072874;28;20187;-67
2023/10/22 09:13:21;;;;;;;2.67;1.40;;;;;;;13.49;73.31;100309.00;5072938;28;20209;-67
2023/10/22 09:15:50;;;;;;;1.40;1.30;;;;;;;13.55;72.78;100316.34;5073349;28;20214;-67
2023/10/22 09:18:17;;;;;;;2.90;1.57;;;;;;;13.47;72.28;100321.78;5072846;28;20273;-67
2023/10/22 09:20:45;;;;;;;1.50;1.50;;;;;;;13.51;72.25;100314.19;5071474;28;20274;-67
2023/10/22 09:23:21;;;;;;;1.33;1.00;;;;;;;13.43;72.83;100328.53;5072731;28;20233;-66
2023/10/22 09:25:50;;;;;;;1.53;1.27;;;;;;;13.45;72.93;100326.47;5073022;28;20573;-66
2023/10/22 09:28:17;;;;;;;1.27;1.17;;;;;;;13.52;73.72;100322.06;5072897;28;20651;-66
2023/10/22 09:30:44;;;;;;;1.37;1.37;;;;;;;13.63;73.14;100335.06;5072903;28;20544;-66
2023/10/22 09:33:10;;;;;;;1.70;1.60;;;;;;;13.65;73.74;100322.28;5072921;28;20186;-67
2023/10/22 09:35:37;;;;;;;1.67;1.57;;;;;;;13.73;73.56;100337.50;5073030;28;20256;-66
2023/10/22 09:38:04;;;;;;;1.23;1.20;;;;;;;13.86;72.98;100328.81;5073181;28;20186;-66
2023/10/22 09:40:35;;;;;;;1.63;1.50;;;;;;;14.03;72.48;100330.34;5072541;28;20608;-66
2023/10/22 09:43:04;;;;;;;5.73;1.97;;;;;;;14.05;72.30;100337.19;5072915;28;20206;-66
2023/10/22 09:45:31;;;;;;;1.30;1.30;;;;;;;14.08;72.50;100339.53;5072457;28;20210;-66
2023/10/22 09:48:04;;;;;;;6.80;1.30;;;;;;;14.08;72.72;100334.16;5073304;28;20193;-66
2023/10/22 09:50:45;;;;;;;1.57;1.33;;;;;;;14.13;71.90;100344.34;5072824;28;20638;-66
2023/10/22 09:53:16;;;;;;;1.30;1.30;;;;;;;14.17;72.28;100345.66;5073004;28;20260;-67
2023/10/22 09:55:46;;;;;;;1.53;1.43;;;;;;;14.15;73.11;100347.69;5075950;28;20210;-67
2023/10/22 09:58:16;;;;;;;1.30;1.30;;;;;;;14.27;73.69;100356.13;5076187;28;20237;-66
2023/10/22 10:00:45;;;;;;;3.20;1.30;;;;;;;14.23;72.80;100354.81;5076234;28;20189;-66
2023/10/22 10:03:20;;;;;;;1.30;1.30;;;;;;;14.31;72.66;100354.72;5076201;28;20591;-66
2023/10/22 10:05:48;;;;;;;1.60;1.60;;;;;;;14.27;72.84;100353.44;5076078;28;20207;-66
2023/10/22 10:08:15;;;;;;;1.30;1.30;;;;;;;14.08;72.93;100365.56;5075889;28;20198;-66
2023/10/22 10:10:42;;;;;;;1.63;1.63;;;;;;;14.06;74.89;100363.06;5075691;28;20326;-66
2023/10/22 10:13:12;;;;;;;4.03;1.60;;;;;;;14.15;74.48;100369.19;5075629;28;20226;-66
2023/10/22 10:15:38;;;;;;;4.03;1.67;;;;;;;14.28;73.66;100369.38;5075633;28;20214;-67
2023/10/22 10:18:09;;;;;;;2.03;1.93;;;;;;;14.15;73.84;100380.78;5076205;28;20171;-67
2023/10/22 10:20:39;;;;;;;1.53;1.43;;;;;;;14.11;75.28;100381.31;5076130;28;20186;-67
2023/10/22 10:23:18;;;;;;;1.70;1.70;;;;;;;14.14;74.81;100387.16;5075515;28;20209;-67
2023/10/22 10:25:45;;;;;;;1.83;1.60;;;;;;;14.21;74.96;100389.97;5075425;28;20206;-67
2023/10/22 10:28:13;;;;;;;3.57;1.70;;;;;;;14.19;74.89;100390.16;5075996;28;20174;-67
2023/10/22 10:30:40;;;;;;;1.77;1.60;;;;;;;14.19;75.04;100394.69;5075372;28;20252;-67
2023/10/22 10:33:07;;;;;;;3.50;2.03;;;;;;;14.27;75.55;100391.06;5075204;28;20562;-67
2023/10/22 10:36:03;;;;;;;4.90;1.67;;;;;;;14.30;75.24;100388.03;5075288;28;20259;-67
2023/10/22 10:38:30;;;;;;;3.03;1.20;;;;;;;14.27;75.14;100391.06;5074995;28;20761;-66
2023/10/22 10:40:56;;;;;;;1.57;1.57;;;;;;;14.31;74.73;100387.84;5075781;28;20187;-66
2023/10/22 10:44:00;;;;;;;2.70;1.20;;;;;;;14.35;74.65;100397.22;5075059;28;20205;-66
2023/10/22 10:46:27;;;;;;;1.40;1.30;;;;;;;14.35;74.24;100388.28;5075028;28;20203;-66
2023/10/22 10:48:54;;;;;;;1.13;1.13;;;;;;;14.46;74.00;100394.13;5075278;28;20563;-66
2023/10/22 10:51:24;;;;;;;1.57;1.47;;;;;;;14.39;73.78;100395.84;5074983;28;20193;-66
2023/10/22 10:54:12;;;;;;;1.10;1.10;;;;;;;14.50;73.55;100406.16;5074781;28;20319;-66
2023/10/22 10:56:46;;;;;;;1.23;1.23;;;;;;;14.41;73.59;100399.19;5074948;28;20214;-67
2023/10/22 10:59:36;;;;;;;1.13;1.13;;;;;;;14.39;74.38;100395.84;5075118;28;20232;-66
2023/10/22 11:02:07;;;;;;;4.83;1.10;;;;;;;14.42;74.03;100402.72;5074752;28;20182;-66
2023/10/22 11:04:36;;;;;;;2.73;1.37;;;;;;;14.43;74.11;100391.78;5074281;28;20175;-66
2023/10/22 11:07:04;;;;;;;1.33;1.23;;;;;;;14.39;74.17;100395.84;5074580;28;20210;-66
2023/10/22 11:09:51;;;;;;;1.20;1.17;;;;;;;14.40;74.29;100402.06;5075386;28;20214;-66
2023/10/22 11:12:19;;;;;;;1.07;1.07;;;;;;;14.38;74.50;100399.59;5075106;28;20190;-66
2023/10/22 11:14:54;;;;;;;1.30;1.30;;;;;;;14.38;74.71;100404.13;5074740;28;20198;-66
2023/10/22 11:17:21;;;;;;;1.13;1.13;;;;;;;14.40;74.41;100408.28;5074530;28;20292;-66
2023/10/22 11:19:51;;;;;;;3.53;1.30;;;;;;;14.44;75.07;100406.91;5074282;28;20191;-66
2023/10/22 11:22:17;;;;;;;2.00;2.00;;;;;;;14.43;74.98;100413.28;5074255;28;20178;-66
2023/10/22 11:24:45;;;;;;;1.37;1.27;;;;;;;14.32;75.52;100424.47;5074556;28;20182;-66
2023/10/22 11:27:11;;;;;;;1.30;1.30;;;;;;;14.35;75.59;100423.25;5074212;28;20253;-67
2023/10/22 11:29:42;;;;;;;1.97;1.40;;;;;;;14.43;75.05;100425.91;5074190;28;20183;-67
2023/10/22 11:32:14;;;;;;;1.27;1.27;;;;;;;14.36;75.81;100425.81;5074077;28;20224;-67